Weather at Nýjidalur Airport

Public forecast

Using degrees Celsius for public forecast. Weather courtesy of forecast.io.

Closest aviation weather report (METAR) to Nýjidalur Airport

Closest report is Akureyri Airport, 56.4 nm (104.5 km) N. Retrieved 2020/10/28 22:00 UTC (19 minutes ago):

BIAR 282200Z 09014KT 9999 DZ BKN019 04/01 Q0993

Closest aviation forecast (TAF) to Nýjidalur Airport

Closest forecast is Akureyri Airport, 56.4 nm (104.5 km) N. Retrieved 2020/10/28 21:43 UTC (36 minutes ago):

TAF BIAR 281935Z 2821/2921 05010KT 9999 -RA SCT023 BKN030 TX05/2913Z TN01/2901Z TEMPO 2821/2901 08015G25KT BECMG 2917/2919 15010KT